createdAt,value
2022-11-24T00:01:24.391Z,16.17
2022-11-24T00:04:03.452Z,13.67
2022-11-24T00:06:32.969Z,12.70
2022-11-24T00:09:02.015Z,15.83
2022-11-24T00:11:33.257Z,10.80
2022-11-24T00:14:01.872Z,15.17
2022-11-24T00:16:32.169Z,9.03
2022-11-24T00:19:01.921Z,13.27
2022-11-24T00:21:31.228Z,11.17
2022-11-24T00:23:59.485Z,20.50
2022-11-24T00:26:33.130Z,12.93
2022-11-24T00:29:03.142Z,14.87
2022-11-24T00:31:36.199Z,13.50
2022-11-24T00:34:06.833Z,17.00
2022-11-24T00:36:36.557Z,14.20
2022-11-24T00:39:11.051Z,15.03
2022-11-24T00:41:39.089Z,16.13
2022-11-24T00:44:07.246Z,15.97
2022-11-24T00:46:35.159Z,11.67
2022-11-24T00:49:02.994Z,13.50
2022-11-24T00:51:31.172Z,15.00
2022-11-24T00:54:00.091Z,10.80
2022-11-24T00:56:29.164Z,12.33
2022-11-24T00:58:57.031Z,13.10
2022-11-24T01:01:27.526Z,13.43
2022-11-24T01:03:55.802Z,12.60
2022-11-24T01:06:26.129Z,12.63
2022-11-24T01:08:54.722Z,8.23
2022-11-24T01:11:28.445Z,11.90
2022-11-24T01:13:57.987Z,17.07
2022-11-24T01:16:27.961Z,11.90
2022-11-24T01:18:56.474Z,12.03
2022-11-24T01:21:24.488Z,11.97
2022-11-24T01:23:52.261Z,10.60
2022-11-24T01:26:22.241Z,11.27
2022-11-24T01:28:57.072Z,12.23
2022-11-24T01:31:26.160Z,11.20
2022-11-24T01:33:54.216Z,14.47
2022-11-24T01:36:22.768Z,12.13
2022-11-24T01:38:50.586Z,12.97
2022-11-24T01:41:23.830Z,12.67
2022-11-24T01:43:53.229Z,9.43
2022-11-24T01:46:26.873Z,10.97
2022-11-24T01:49:14.630Z,13.33
2022-11-24T01:51:57.029Z,12.30
2022-11-24T01:54:38.624Z,61.80
2022-11-24T01:57:16.472Z,77.13
2022-11-24T01:59:47.103Z,62.13
2022-11-24T02:02:15.239Z,32.40
2022-11-24T02:04:44.122Z,21.37
2022-11-24T02:07:12.904Z,16.37
2022-11-24T02:09:49.482Z,13.30
2022-11-24T02:12:17.323Z,16.33
2022-11-24T02:14:45.973Z,22.57
2022-11-24T02:17:13.556Z,23.63
2022-11-24T02:19:41.199Z,14.23
2022-11-24T02:22:20.325Z,41.53
2022-11-24T02:24:51.939Z,45.23
2022-11-24T02:27:19.995Z,39.60
2022-11-24T02:29:48.592Z,13.90
2022-11-24T02:32:16.724Z,22.47
2022-11-24T02:34:44.353Z,18.90
2022-11-24T02:37:11.875Z,20.67
2022-11-24T02:39:39.425Z,19.33
2022-11-24T02:42:11.204Z,14.23
2022-11-24T02:44:46.923Z,14.67
2022-11-24T02:47:14.503Z,7.37
2022-11-24T02:49:42.228Z,15.33
2022-11-24T02:52:09.844Z,13.93
2022-11-24T02:54:37.585Z,12.07
2022-11-24T02:57:05.322Z,13.97
2022-11-24T02:59:32.914Z,11.90
2022-11-24T03:02:00.607Z,14.30
2022-11-24T03:04:28.304Z,14.07
2022-11-24T03:06:56.096Z,12.47
2022-11-24T03:09:23.684Z,15.20
2022-11-24T03:11:51.244Z,14.03
2022-11-24T03:14:18.790Z,17.10
2022-11-24T03:16:46.325Z,24.47
2022-11-24T03:19:13.881Z,26.70
2022-11-24T03:21:41.444Z,13.03
2022-11-24T03:24:09.037Z,15.47
2022-11-24T03:26:38.447Z,11.33
2022-11-24T03:29:06.064Z,12.50
2022-11-24T03:31:34.180Z,18.60
2022-11-24T03:34:01.839Z,21.90
2022-11-24T03:36:29.427Z,19.43
2022-11-24T03:38:57.022Z,15.17
2022-11-24T03:41:24.599Z,13.40
2022-11-24T03:43:52.224Z,12.83
2022-11-24T03:46:19.888Z,21.33
2022-11-24T03:48:47.487Z,19.63
2022-11-24T03:51:15.413Z,9.57
2022-11-24T03:53:42.986Z,12.70
2022-11-24T03:56:10.546Z,14.23
2022-11-24T03:58:38.096Z,14.23
2022-11-24T04:01:05.680Z,13.37
2022-11-24T04:03:33.285Z,15.17
2022-11-24T04:06:00.826Z,13.00
2022-11-24T04:08:28.424Z,16.37
2022-11-24T04:10:56.035Z,13.23
2022-11-24T04:13:25.162Z,16.27
2022-11-24T04:15:53.560Z,12.10
2022-11-24T04:18:21.714Z,19.30
2022-11-24T04:20:51.097Z,13.30
2022-11-24T04:23:19.241Z,16.50
2022-11-24T04:25:46.883Z,16.93
2022-11-24T04:28:14.651Z,11.30
2022-11-24T04:30:44.590Z,17.63
2022-11-24T04:33:13.099Z,10.03
2022-11-24T04:35:40.792Z,14.97
2022-11-24T04:38:08.433Z,18.60
2022-11-24T04:40:36.758Z,20.60
2022-11-24T04:43:04.413Z,17.53
2022-11-24T04:45:34.223Z,19.00
2022-11-24T04:48:01.856Z,23.43
2022-11-24T04:50:29.454Z,18.87
2022-11-24T04:52:57.150Z,22.70
2022-11-24T04:55:24.717Z,21.93
2022-11-24T04:57:52.337Z,29.20
2022-11-24T05:00:20.248Z,21.73
2022-11-24T05:02:47.907Z,23.00
2022-11-24T05:05:15.528Z,25.27
2022-11-24T05:07:43.215Z,17.80
2022-11-24T05:10:29.231Z,18.63
2022-11-24T05:12:59.559Z,16.63
2022-11-24T05:15:27.472Z,24.47
2022-11-24T05:17:55.253Z,18.97
2022-11-24T05:20:23.804Z,23.17
2022-11-24T05:22:51.523Z,16.47
2022-11-24T05:25:19.127Z,18.93
2022-11-24T05:27:46.721Z,19.47
2022-11-24T05:30:14.653Z,19.17
2022-11-24T05:32:43.779Z,16.90
2022-11-24T05:35:22.141Z,15.80
2022-11-24T05:38:25.351Z,15.77
2022-11-24T05:41:31.035Z,18.40
2022-11-24T05:44:26.288Z,16.60
2022-11-24T05:47:19.666Z,17.30
2022-11-24T05:50:09.314Z,19.37
2022-11-24T05:53:02.829Z,17.23
2022-11-24T05:56:01.653Z,15.50
2022-11-24T05:58:56.913Z,17.07
2022-11-24T06:01:42.889Z,16.57
2022-11-24T06:04:30.986Z,22.70
2022-11-24T06:07:03.091Z,17.07
2022-11-24T06:09:30.851Z,21.13
2022-11-24T06:11:59.227Z,16.97
2022-11-24T06:14:29.112Z,18.10
2022-11-24T06:17:00.761Z,19.27
2022-11-24T06:19:33.094Z,10.10
2022-11-24T06:22:00.918Z,26.87
2022-11-24T06:24:31.098Z,14.90
2022-11-24T06:26:58.875Z,18.57
2022-11-24T06:29:29.495Z,22.63
2022-11-24T06:32:08.884Z,20.67
2022-11-24T06:34:45.418Z,16.60
2022-11-24T06:37:42.873Z,16.43
2022-11-24T06:40:38.232Z,20.33
2022-11-24T06:43:40.768Z,18.97
2022-11-24T06:46:17.252Z,15.33
2022-11-24T06:49:07.864Z,21.43
2022-11-24T06:51:57.692Z,20.23
2022-11-24T06:54:46.411Z,18.50
2022-11-24T07:01:06.188Z,14.77
2022-11-24T07:06:45.564Z,15.20
2022-11-24T07:09:55.549Z,13.77
2022-11-24T07:13:17.320Z,16.57
2022-11-24T07:15:59.940Z,18.67
2022-11-24T07:19:09.489Z,17.97
2022-11-24T07:28:19.773Z,13.23
2022-11-24T07:30:58.496Z,17.60
2022-11-24T07:33:52.065Z,14.70
2022-11-24T07:39:25.441Z,17.07
2022-11-24T07:42:20.267Z,14.97
2022-11-24T07:45:20.953Z,14.67
2022-11-24T07:52:01.895Z,14.07
2022-11-24T07:54:32.179Z,10.97
2022-11-24T07:57:19.150Z,10.37
2022-11-24T08:00:10.939Z,16.70
2022-11-24T08:03:17.928Z,13.13
2022-11-24T08:06:31.817Z,9.00
2022-11-24T08:09:32.292Z,17.27
2022-11-24T08:12:35.630Z,13.17
2022-11-24T08:15:38.281Z,13.50
2022-11-24T08:18:48.181Z,10.47
2022-11-24T08:21:41.971Z,16.50
2022-11-24T08:25:03.265Z,13.87
2022-11-24T08:27:57.271Z,13.33
2022-11-24T08:31:31.166Z,9.17
2022-11-24T08:34:44.825Z,12.07
2022-11-24T08:37:37.975Z,13.63
2022-11-24T08:40:15.298Z,12.10
2022-11-24T08:42:51.659Z,11.57
2022-11-24T08:45:29.453Z,14.30
2022-11-24T08:48:10.328Z,9.27
2022-11-24T08:51:05.922Z,11.63
2022-11-24T08:57:34.431Z,10.20
2022-11-24T09:00:25.799Z,11.97
2022-11-24T09:03:27.497Z,10.00
2022-11-24T09:09:08.078Z,5.40
2022-11-24T09:11:51.035Z,10.07
2022-11-24T09:14:42.568Z,9.20
2022-11-24T09:20:55.332Z,10.27
2022-11-24T09:30:15.412Z,10.80
2022-11-24T09:33:03.151Z,10.20
2022-11-24T09:35:36.463Z,12.17
2022-11-24T09:38:10.267Z,10.83
2022-11-24T09:40:37.938Z,7.57
2022-11-24T09:43:18.520Z,9.80
2022-11-24T09:46:06.378Z,10.40
2022-11-24T09:48:44.103Z,6.43
2022-11-24T09:51:13.467Z,7.07
2022-11-24T09:53:47.059Z,9.77
2022-11-24T09:56:27.841Z,10.87
2022-11-24T09:59:08.960Z,9.53
2022-11-24T10:02:01.781Z,11.07
2022-11-24T10:05:11.835Z,6.60
2022-11-24T10:08:58.156Z,6.17
2022-11-24T10:12:23.725Z,8.07
2022-11-24T10:15:32.096Z,6.23
2022-11-24T10:19:11.356Z,9.87
2022-11-24T10:23:09.921Z,8.40
2022-11-24T10:29:22.990Z,7.60
2022-11-24T10:33:46.124Z,6.57
2022-11-24T10:35:48.193Z,3.80
2022-11-24T10:38:24.200Z,4.27
2022-11-24T10:41:02.236Z,4.40
2022-11-24T10:43:35.034Z,3.50
2022-11-24T10:47:10.271Z,4.50
2022-11-24T10:51:10.768Z,6.73
2022-11-24T10:54:30.843Z,7.70
2022-11-24T10:57:45.889Z,4.73
2022-11-24T11:03:50.925Z,6.80
2022-11-24T11:06:57.093Z,5.73
2022-11-24T11:10:51.439Z,4.97
2022-11-24T11:13:51.044Z,6.07
2022-11-24T11:20:20.071Z,4.97
2022-11-24T11:23:54.232Z,5.57
2022-11-24T11:26:56.920Z,5.50
2022-11-24T11:36:33.122Z,6.13
2022-11-24T11:39:49.450Z,4.70
2022-11-24T11:43:43.099Z,5.30
2022-11-24T11:46:38.707Z,4.57
2022-11-24T11:54:51.072Z,4.63
2022-11-24T11:56:47.012Z,3.47
2022-11-24T12:00:14.821Z,4.00
2022-11-24T12:03:32.775Z,5.53
2022-11-24T12:06:44.831Z,4.77
2022-11-24T12:10:04.589Z,5.30
2022-11-24T12:12:56.746Z,5.30
2022-11-24T12:16:38.009Z,6.00
2022-11-24T12:20:03.292Z,6.97
2022-11-24T12:23:21.127Z,6.40
2022-11-24T12:27:17.971Z,5.80
2022-11-24T12:30:21.732Z,7.50
2022-11-24T12:37:05.486Z,3.50
2022-11-24T12:40:12.357Z,3.60
2022-11-24T12:43:04.120Z,3.83
2022-11-24T12:45:43.717Z,4.13
2022-11-24T12:48:17.368Z,8.07
2022-11-24T12:50:46.180Z,3.97
2022-11-24T12:53:13.831Z,5.10
2022-11-24T12:56:04.555Z,7.80
2022-11-24T12:59:06.883Z,5.40
2022-11-24T13:02:18.425Z,4.57
2022-11-24T13:05:25.942Z,3.78
2022-11-24T13:08:29.072Z,5.30
2022-11-24T13:11:23.429Z,3.45
2022-11-24T13:14:26.967Z,5.07
2022-11-24T13:18:08.609Z,5.45
2022-11-24T13:21:07.268Z,4.95
2022-11-24T13:24:37.008Z,3.25
2022-11-24T13:27:50.204Z,5.88
2022-11-24T13:31:16.961Z,3.58
2022-11-24T13:37:36.197Z,7.47
2022-11-24T13:40:38.190Z,5.18
2022-11-24T13:43:08.648Z,4.63
2022-11-24T13:46:23.064Z,5.50
2022-11-24T13:52:42.300Z,5.97
2022-11-24T13:55:49.374Z,6.93
2022-11-24T13:58:50.947Z,5.13
2022-11-24T14:05:08.693Z,6.73
2022-11-24T14:08:20.537Z,6.13
2022-11-24T14:11:37.313Z,6.53
2022-11-24T14:15:01.082Z,6.10
2022-11-24T14:27:51.153Z,8.30
2022-11-24T14:30:39.527Z,9.18
2022-11-24T14:33:31.746Z,6.50
2022-11-24T14:40:21.668Z,8.17
2022-11-24T14:43:13.622Z,6.73
2022-11-24T14:49:57.462Z,7.30
2022-11-24T14:59:30.534Z,7.50
2022-11-24T15:02:49.991Z,7.60
2022-11-24T15:06:02.416Z,8.13
2022-11-24T15:09:09.577Z,7.33
2022-11-24T15:12:12.548Z,10.33
2022-11-24T15:15:25.181Z,7.50
2022-11-24T15:18:12.164Z,9.97
2022-11-24T15:20:45.255Z,6.37
2022-11-24T15:23:15.869Z,9.60
2022-11-24T15:25:43.548Z,10.50
2022-11-24T15:28:11.999Z,9.27
2022-11-24T15:30:39.720Z,8.67
2022-11-24T15:33:14.708Z,9.30
2022-11-24T15:35:42.933Z,12.67
2022-11-24T15:38:10.793Z,7.57
2022-11-24T15:40:40.940Z,7.23
2022-11-24T15:43:37.150Z,11.33
2022-11-24T15:46:06.087Z,11.60
2022-11-24T15:48:36.735Z,13.60
2022-11-24T15:51:20.788Z,15.87
2022-11-24T15:53:54.111Z,15.13
2022-11-24T15:56:35.615Z,10.37
2022-11-24T15:59:03.902Z,9.43
2022-11-24T16:01:34.349Z,13.17
2022-11-24T16:04:02.429Z,12.63
2022-11-24T16:06:30.624Z,11.00
2022-11-24T16:08:58.980Z,9.50
2022-11-24T16:11:26.765Z,8.40
2022-11-24T16:14:15.072Z,10.53
2022-11-24T16:16:42.980Z,8.27
2022-11-24T16:19:10.866Z,10.50
2022-11-24T16:21:38.484Z,9.83
2022-11-24T16:24:06.576Z,8.48
2022-11-24T16:26:34.183Z,9.23
2022-11-24T16:29:01.914Z,11.57
2022-11-24T16:31:29.707Z,10.33
2022-11-24T16:33:57.566Z,13.40
2022-11-24T16:36:35.626Z,12.80
2022-11-24T16:39:08.783Z,14.43
2022-11-24T16:41:43.116Z,23.87
2022-11-24T16:44:13.883Z,15.80
2022-11-24T16:46:47.394Z,21.97
2022-11-24T16:49:17.448Z,23.20
2022-11-24T16:51:48.407Z,36.43
2022-11-24T16:54:18.380Z,35.70
2022-11-24T16:56:48.127Z,22.23
2022-11-24T16:59:17.345Z,16.70
2022-11-24T17:01:46.689Z,15.53
2022-11-24T17:04:23.899Z,15.37
2022-11-24T17:07:02.318Z,14.57
2022-11-24T17:09:40.834Z,14.07
2022-11-24T17:12:14.563Z,16.47
2022-11-24T17:15:32.736Z,17.03
2022-11-24T17:18:23.620Z,18.57
2022-11-24T17:20:51.783Z,18.20
2022-11-24T17:23:27.549Z,12.83
2022-11-24T17:26:01.941Z,19.73
2022-11-24T17:28:35.122Z,15.87
2022-11-24T17:31:07.875Z,15.27
2022-11-24T17:33:39.059Z,20.23
2022-11-24T17:36:10.129Z,21.47
2022-11-24T17:38:40.386Z,14.30
2022-11-24T17:41:13.993Z,14.77
2022-11-24T17:43:43.067Z,13.77
2022-11-24T17:46:13.508Z,16.57
2022-11-24T17:48:41.127Z,15.10
2022-11-24T17:51:15.100Z,18.87
2022-11-24T17:53:45.395Z,13.10
2022-11-24T17:56:15.388Z,18.80
2022-11-24T17:58:43.660Z,17.23
2022-11-24T18:01:12.917Z,12.20
2022-11-24T18:03:41.868Z,11.93
2022-11-24T18:06:12.039Z,15.10
2022-11-24T18:08:41.752Z,15.50
2022-11-24T18:11:16.892Z,19.83
2022-11-24T18:14:01.478Z,16.13
2022-11-24T18:16:31.644Z,12.60
2022-11-24T18:19:08.797Z,12.00
2022-11-24T18:21:41.240Z,12.03
2022-11-24T18:24:10.954Z,11.57
2022-11-24T18:26:42.186Z,13.13
2022-11-24T18:29:11.475Z,11.70
2022-11-24T18:31:39.621Z,14.83
2022-11-24T18:34:07.841Z,17.77
2022-11-24T18:36:35.940Z,16.00
2022-11-24T18:39:09.102Z,17.70
2022-11-24T18:41:36.734Z,21.00
2022-11-24T18:44:07.915Z,18.60
2022-11-24T18:46:37.013Z,12.77
2022-11-24T18:49:06.851Z,16.77
2022-11-24T18:51:34.876Z,17.30
2022-11-24T18:54:04.706Z,19.10
2022-11-24T18:56:32.560Z,27.83
2022-11-24T18:59:00.221Z,20.63
2022-11-24T19:01:29.430Z,25.70
2022-11-24T19:04:00.361Z,17.20
2022-11-24T19:06:33.532Z,16.37
2022-11-24T19:09:13.425Z,16.83
2022-11-24T19:11:44.470Z,11.90
2022-11-24T19:14:17.610Z,21.67
2022-11-24T19:16:47.939Z,19.20
2022-11-24T19:19:16.989Z,14.50
2022-11-24T19:21:45.092Z,14.33
2022-11-24T19:24:15.806Z,14.47
2022-11-24T19:26:43.567Z,13.53
2022-11-24T19:29:11.437Z,12.03
2022-11-24T19:31:40.010Z,13.87
2022-11-24T19:34:08.176Z,18.00
2022-11-24T19:36:38.685Z,12.57
2022-11-24T19:39:07.631Z,14.30
2022-11-24T19:41:35.424Z,16.63
2022-11-24T19:44:03.151Z,14.43
2022-11-24T19:46:31.320Z,18.23
2022-11-24T19:49:05.099Z,19.03
2022-11-24T19:51:34.746Z,16.97
2022-11-24T19:54:03.648Z,17.47
2022-11-24T19:56:34.802Z,21.10
2022-11-24T19:59:04.377Z,17.77
2022-11-24T20:01:38.748Z,20.27
2022-11-24T20:04:14.869Z,18.07
2022-11-24T20:06:45.662Z,20.10
2022-11-24T20:09:17.870Z,18.23
2022-11-24T20:11:45.942Z,21.50
2022-11-24T20:14:15.277Z,18.77
2022-11-24T20:16:43.354Z,16.10
2022-11-24T20:19:13.410Z,15.73
2022-11-24T20:21:42.607Z,15.03
2022-11-24T20:24:15.664Z,15.93
2022-11-24T20:26:58.184Z,18.77
2022-11-24T20:29:26.207Z,20.90
2022-11-24T20:31:55.494Z,17.37
2022-11-24T20:34:24.238Z,37.63
2022-11-24T20:36:55.002Z,29.00
2022-11-24T20:39:31.822Z,17.55
2022-11-24T20:41:59.525Z,16.80
2022-11-24T20:44:27.783Z,15.70
2022-11-24T20:46:57.317Z,15.63
2022-11-24T20:49:25.911Z,19.77
2022-11-24T20:51:57.385Z,17.20
2022-11-24T20:54:25.226Z,15.83
2022-11-24T20:56:53.232Z,18.20
2022-11-24T20:59:22.981Z,14.53
2022-11-24T21:01:52.068Z,18.07
2022-11-24T21:04:22.759Z,17.10
2022-11-24T21:06:50.988Z,17.43
2022-11-24T21:09:19.153Z,17.80
2022-11-24T21:11:49.630Z,15.33
2022-11-24T21:14:17.381Z,17.53
2022-11-24T21:16:44.997Z,21.03
2022-11-24T21:19:14.742Z,17.83
2022-11-24T21:21:43.316Z,16.23
2022-11-24T21:24:15.937Z,17.77
2022-11-24T21:26:47.507Z,15.20
2022-11-24T21:29:18.872Z,16.40
2022-11-24T21:31:46.750Z,16.93
2022-11-24T21:34:16.235Z,18.23
2022-11-24T21:36:44.863Z,16.10
2022-11-24T21:39:14.003Z,17.83
2022-11-24T21:41:42.731Z,14.20
2022-11-24T21:44:14.071Z,20.07
2022-11-24T21:46:46.178Z,13.37
2022-11-24T21:49:17.144Z,19.03
2022-11-24T21:51:44.762Z,17.67
2022-11-24T21:54:12.358Z,17.03
2022-11-24T21:56:39.981Z,20.20
2022-11-24T21:59:07.730Z,20.70
2022-11-24T22:01:35.598Z,18.90
2022-11-24T22:04:03.322Z,16.40
2022-11-24T22:06:31.994Z,19.27
2022-11-24T22:08:59.658Z,20.60
2022-11-24T22:11:27.413Z,25.20
2022-11-24T22:13:55.124Z,20.00
2022-11-24T22:16:24.500Z,17.43
2022-11-24T22:18:52.916Z,18.73
2022-11-24T22:21:29.280Z,18.63
2022-11-24T22:23:56.979Z,18.00
2022-11-24T22:26:25.611Z,20.37
2022-11-24T22:28:57.602Z,16.17
2022-11-24T22:31:30.598Z,13.90
2022-11-24T22:33:59.681Z,16.93
2022-11-24T22:36:29.442Z,15.63
2022-11-24T22:39:04.979Z,19.43
2022-11-24T22:41:34.906Z,16.90
2022-11-24T22:44:03.082Z,19.80
2022-11-24T22:46:31.997Z,19.53
2022-11-24T22:49:01.107Z,21.50
2022-11-24T22:51:32.318Z,19.63
2022-11-24T22:54:02.599Z,21.00
2022-11-24T22:56:32.470Z,19.03
2022-11-24T22:59:01.511Z,19.53
2022-11-24T23:01:30.981Z,18.60
2022-11-24T23:03:58.745Z,21.23
2022-11-24T23:06:29.081Z,18.67
2022-11-24T23:08:58.221Z,20.50
2022-11-24T23:11:37.161Z,20.80
2022-11-24T23:14:08.433Z,19.83
2022-11-24T23:16:36.123Z,26.00
2022-11-24T23:19:04.246Z,18.83
2022-11-24T23:21:33.979Z,18.63
2022-11-24T23:24:02.915Z,20.63
2022-11-24T23:26:35.304Z,20.37
2022-11-24T23:29:04.651Z,20.80
2022-11-24T23:31:32.729Z,19.57
2022-11-24T23:34:02.449Z,17.90
2022-11-24T23:36:30.721Z,18.10
2022-11-24T23:39:05.875Z,21.17
2022-11-24T23:41:34.729Z,21.00
2022-11-24T23:44:02.358Z,21.23
2022-11-24T23:46:30.011Z,22.43
2022-11-24T23:48:57.795Z,19.50
2022-11-24T23:51:30.421Z,19.30
2022-11-24T23:53:59.525Z,31.80
2022-11-24T23:56:32.294Z,25.90
2022-11-24T23:59:03.963Z,29.87
